sensor_id;sensor_type;location;lat;lon;timestamp;P1;durP1;ratioP1;P2;durP2;ratioP2
39344;SDS011;25061;51.954;6.996;2023-08-30T04:32:20;19.20;;;14.05;;
39344;SDS011;25061;51.954;6.996;2023-08-30T04:34:46;19.80;;;14.50;;
39344;SDS011;25061;51.954;6.996;2023-08-30T04:37:12;17.73;;;13.48;;
39344;SDS011;25061;51.954;6.996;2023-08-30T04:39:38;21.45;;;15.02;;
39344;SDS011;25061;51.954;6.996;2023-08-30T04:42:04;21.33;;;14.80;;
39344;SDS011;25061;51.954;6.996;2023-08-30T04:44:30;18.10;;;13.23;;
39344;SDS011;25061;51.954;6.996;2023-08-30T04:46:57;21.70;;;14.55;;
39344;SDS011;25061;51.954;6.996;2023-08-30T04:49:22;21.13;;;14.93;;
39344;SDS011;25061;51.954;6.996;2023-08-30T04:51:50;20.52;;;14.73;;
39344;SDS011;25061;51.954;6.996;2023-08-30T04:54:16;18.63;;;13.80;;
39344;SDS011;25061;51.954;6.996;2023-08-30T04:56:41;22.35;;;15.10;;
39344;SDS011;25061;51.954;6.996;2023-08-30T04:59:07;21.70;;;15.13;;
39344;SDS011;25061;51.954;6.996;2023-08-30T05:01:33;19.85;;;13.35;;
39344;SDS011;25061;51.954;6.996;2023-08-30T05:04:00;19.52;;;14.88;;
39344;SDS011;25061;51.954;6.996;2023-08-30T05:06:26;21.90;;;15.18;;
39344;SDS011;25061;51.954;6.996;2023-08-30T05:08:51;22.10;;;15.60;;
39344;SDS011;25061;51.954;6.996;2023-08-30T05:11:17;27.38;;;15.50;;
39344;SDS011;25061;51.954;6.996;2023-08-30T05:13:42;22.75;;;15.00;;
39344;SDS011;25061;51.954;6.996;2023-08-30T05:16:08;20.83;;;14.90;;
39344;SDS011;25061;51.954;6.996;2023-08-30T05:18:34;20.92;;;14.23;;
39344;SDS011;25061;51.954;6.996;2023-08-30T05:20:59;23.52;;;15.75;;
39344;SDS011;25061;51.954;6.996;2023-08-30T05:23:28;20.27;;;14.90;;
39344;SDS011;25061;51.954;6.996;2023-08-30T05:25:54;20.58;;;14.32;;
39344;SDS011;25061;51.954;6.996;2023-08-30T05:28:19;22.05;;;14.20;;
39344;SDS011;25061;51.954;6.996;2023-08-30T05:30:45;21.77;;;14.80;;
39344;SDS011;25061;51.954;6.996;2023-08-30T05:33:10;21.33;;;14.02;;
39344;SDS011;25061;51.954;6.996;2023-08-30T05:35:36;22.63;;;14.25;;
39344;SDS011;25061;51.954;6.996;2023-08-30T05:38:02;24.60;;;14.20;;
39344;SDS011;25061;51.954;6.996;2023-08-30T05:40:27;22.38;;;14.27;;
39344;SDS011;25061;51.954;6.996;2023-08-30T05:42:53;23.52;;;15.32;;
39344;SDS011;25061;51.954;6.996;2023-08-30T05:45:20;21.48;;;14.32;;
39344;SDS011;25061;51.954;6.996;2023-08-30T05:47:45;20.48;;;13.85;;
39344;SDS011;25061;51.954;6.996;2023-08-30T05:50:11;21.50;;;14.48;;
39344;SDS011;25061;51.954;6.996;2023-08-30T05:52:37;21.02;;;14.90;;
39344;SDS011;25061;51.954;6.996;2023-08-30T05:55:06;21.42;;;14.75;;
39344;SDS011;25061;51.954;6.996;2023-08-30T05:57:33;20.02;;;13.13;;
39344;SDS011;25061;51.954;6.996;2023-08-30T05:59:59;21.48;;;13.85;;
39344;SDS011;25061;51.954;6.996;2023-08-30T06:02:25;23.58;;;13.85;;
39344;SDS011;25061;51.954;6.996;2023-08-30T06:04:51;22.15;;;12.77;;
39344;SDS011;25061;51.954;6.996;2023-08-30T06:07:17;21.58;;;14.50;;
39344;SDS011;25061;51.954;6.996;2023-08-30T06:09:42;22.92;;;13.57;;
39344;SDS011;25061;51.954;6.996;2023-08-30T06:12:09;22.45;;;14.68;;
39344;SDS011;25061;51.954;6.996;2023-08-30T06:14:34;24.33;;;14.45;;
39344;SDS011;25061;51.954;6.996;2023-08-30T06:17:00;21.67;;;13.73;;
39344;SDS011;25061;51.954;6.996;2023-08-30T06:19:26;24.15;;;15.27;;
39344;SDS011;25061;51.954;6.996;2023-08-30T06:21:51;23.38;;;15.25;;
39344;SDS011;25061;51.954;6.996;2023-08-30T06:24:17;24.65;;;15.48;;
39344;SDS011;25061;51.954;6.996;2023-08-30T06:26:42;27.67;;;15.35;;
39344;SDS011;25061;51.954;6.996;2023-08-30T06:29:08;24.20;;;16.75;;
39344;SDS011;25061;51.954;6.996;2023-08-30T06:31:34;24.83;;;17.25;;
39344;SDS011;25061;51.954;6.996;2023-08-30T06:33:59;27.17;;;17.30;;
39344;SDS011;25061;51.954;6.996;2023-08-30T06:36:26;27.25;;;16.83;;
39344;SDS011;25061;51.954;6.996;2023-08-30T06:38:52;25.63;;;17.60;;
39344;SDS011;25061;51.954;6.996;2023-08-30T06:41:18;27.55;;;17.73;;
39344;SDS011;25061;51.954;6.996;2023-08-30T06:43:43;30.45;;;19.08;;
39344;SDS011;25061;51.954;6.996;2023-08-30T06:46:09;27.98;;;18.45;;
39344;SDS011;25061;51.954;6.996;2023-08-30T06:48:36;29.85;;;19.90;;
39344;SDS011;25061;51.954;6.996;2023-08-30T06:51:01;29.95;;;21.00;;
39344;SDS011;25061;51.954;6.996;2023-08-30T06:53:27;30.33;;;22.42;;
39344;SDS011;25061;51.954;6.996;2023-08-30T06:55:56;35.53;;;22.27;;
39344;SDS011;25061;51.954;6.996;2023-08-30T06:58:23;31.92;;;22.35;;
39344;SDS011;25061;51.954;6.996;2023-08-30T07:00:49;32.00;;;21.88;;
39344;SDS011;25061;51.954;6.996;2023-08-30T07:03:14;33.65;;;23.88;;
39344;SDS011;25061;51.954;6.996;2023-08-30T07:05:40;29.92;;;22.60;;
39344;SDS011;25061;51.954;6.996;2023-08-30T07:08:08;31.77;;;23.48;;
39344;SDS011;25061;51.954;6.996;2023-08-30T07:10:34;34.42;;;24.20;;
39344;SDS011;25061;51.954;6.996;2023-08-30T07:12:59;33.20;;;22.55;;
39344;SDS011;25061;51.954;6.996;2023-08-30T07:15:25;32.05;;;23.38;;
39344;SDS011;25061;51.954;6.996;2023-08-30T07:17:51;32.20;;;21.83;;
39344;SDS011;25061;51.954;6.996;2023-08-30T07:20:16;34.65;;;22.05;;
39344;SDS011;25061;51.954;6.996;2023-08-30T07:22:42;28.55;;;20.55;;
39344;SDS011;25061;51.954;6.996;2023-08-30T07:25:08;28.75;;;21.05;;
39344;SDS011;25061;51.954;6.996;2023-08-30T07:27:35;26.58;;;20.48;;
39344;SDS011;25061;51.954;6.996;2023-08-30T07:30:01;32.47;;;20.45;;
39344;SDS011;25061;51.954;6.996;2023-08-30T07:32:29;28.25;;;19.42;;
39344;SDS011;25061;51.954;6.996;2023-08-30T07:34:55;28.95;;;20.35;;
39344;SDS011;25061;51.954;6.996;2023-08-30T07:37:21;27.15;;;19.13;;
39344;SDS011;25061;51.954;6.996;2023-08-30T07:39:47;25.05;;;18.00;;
39344;SDS011;25061;51.954;6.996;2023-08-30T07:42:13;25.42;;;18.45;;
39344;SDS011;25061;51.954;6.996;2023-08-30T07:44:40;23.88;;;18.08;;
39344;SDS011;25061;51.954;6.996;2023-08-30T07:47:05;26.90;;;16.50;;
39344;SDS011;25061;51.954;6.996;2023-08-30T07:49:31;28.23;;;17.40;;
39344;SDS011;25061;51.954;6.996;2023-08-30T07:51:57;23.80;;;16.67;;
39344;SDS011;25061;51.954;6.996;2023-08-30T07:54:22;22.27;;;16.63;;
39344;SDS011;25061;51.954;6.996;2023-08-30T07:56:51;25.52;;;15.95;;
39344;SDS011;25061;51.954;6.996;2023-08-30T07:59:16;22.88;;;16.88;;
39344;SDS011;25061;51.954;6.996;2023-08-30T08:01:42;21.52;;;16.42;;
39344;SDS011;25061;51.954;6.996;2023-08-30T08:04:09;21.48;;;16.00;;
39344;SDS011;25061;51.954;6.996;2023-08-30T08:06:46;23.58;;;17.25;;
39344;SDS011;25061;51.954;6.996;2023-08-30T08:09:21;24.73;;;16.88;;
39344;SDS011;25061;51.954;6.996;2023-08-30T08:11:49;23.45;;;17.88;;
39344;SDS011;25061;51.954;6.996;2023-08-30T08:14:15;25.83;;;17.80;;
39344;SDS011;25061;51.954;6.996;2023-08-30T08:16:41;23.52;;;17.35;;
39344;SDS011;25061;51.954;6.996;2023-08-30T08:19:06;26.45;;;17.95;;
39344;SDS011;25061;51.954;6.996;2023-08-30T08:21:35;26.67;;;18.30;;
39344;SDS011;25061;51.954;6.996;2023-08-30T08:24:01;24.42;;;18.08;;
39344;SDS011;25061;51.954;6.996;2023-08-30T08:26:27;27.90;;;19.67;;
39344;SDS011;25061;51.954;6.996;2023-08-30T08:28:56;26.65;;;19.00;;
39344;SDS011;25061;51.954;6.996;2023-08-30T08:31:22;26.98;;;19.27;;
39344;SDS011;25061;51.954;6.996;2023-08-30T08:33:50;29.98;;;19.17;;
39344;SDS011;25061;51.954;6.996;2023-08-30T08:36:17;23.85;;;19.02;;
39344;SDS011;25061;51.954;6.996;2023-08-30T08:38:43;29.98;;;18.75;;
39344;SDS011;25061;51.954;6.996;2023-08-30T08:41:09;26.67;;;19.63;;
39344;SDS011;25061;51.954;6.996;2023-08-30T08:43:37;26.48;;;18.92;;
39344;SDS011;25061;51.954;6.996;2023-08-30T08:46:05;26.60;;;19.02;;
39344;SDS011;25061;51.954;6.996;2023-08-30T08:48:33;27.30;;;17.88;;
39344;SDS011;25061;51.954;6.996;2023-08-30T08:51:04;21.10;;;16.33;;
39344;SDS011;25061;51.954;6.996;2023-08-30T08:53:30;23.73;;;16.85;;
39344;SDS011;25061;51.954;6.996;2023-08-30T08:55:56;22.02;;;15.55;;
39344;SDS011;25061;51.954;6.996;2023-08-30T08:58:23;21.92;;;15.00;;
39344;SDS011;25061;51.954;6.996;2023-08-30T09:00:50;19.90;;;14.65;;
39344;SDS011;25061;51.954;6.996;2023-08-30T09:03:17;24.65;;;15.32;;
39344;SDS011;25061;51.954;6.996;2023-08-30T09:05:45;19.25;;;14.43;;
39344;SDS011;25061;51.954;6.996;2023-08-30T09:08:11;22.15;;;15.10;;
39344;SDS011;25061;51.954;6.996;2023-08-30T09:10:38;21.75;;;14.82;;
39344;SDS011;25061;51.954;6.996;2023-08-30T09:13:04;19.63;;;15.35;;
39344;SDS011;25061;51.954;6.996;2023-08-30T09:15:33;21.13;;;14.95;;
39344;SDS011;25061;51.954;6.996;2023-08-30T09:18:02;22.38;;;13.70;;
39344;SDS011;25061;51.954;6.996;2023-08-30T09:20:29;21.40;;;14.68;;
39344;SDS011;25061;51.954;6.996;2023-08-30T09:22:54;19.58;;;13.68;;
39344;SDS011;25061;51.954;6.996;2023-08-30T09:25:24;21.40;;;12.45;;
39344;SDS011;25061;51.954;6.996;2023-08-30T09:27:57;17.75;;;12.32;;
39344;SDS011;25061;51.954;6.996;2023-08-30T09:30:24;19.00;;;9.25;;
39344;SDS011;25061;51.954;6.996;2023-08-30T09:32:50;14.77;;;9.27;;
39344;SDS011;25061;51.954;6.996;2023-08-30T09:35:16;14.48;;;9.88;;
39344;SDS011;25061;51.954;6.996;2023-08-30T09:37:45;14.07;;;8.75;;
39344;SDS011;25061;51.954;6.996;2023-08-30T09:40:11;15.05;;;9.38;;
39344;SDS011;25061;51.954;6.996;2023-08-30T09:42:42;14.70;;;10.35;;
39344;SDS011;25061;51.954;6.996;2023-08-30T09:45:18;17.23;;;9.93;;
39344;SDS011;25061;51.954;6.996;2023-08-30T09:47:50;14.20;;;9.45;;
39344;SDS011;25061;51.954;6.996;2023-08-30T09:50:19;16.33;;;10.88;;
39344;SDS011;25061;51.954;6.996;2023-08-30T09:52:46;15.00;;;10.63;;
39344;SDS011;25061;51.954;6.996;2023-08-30T09:55:14;17.85;;;11.20;;
39344;SDS011;25061;51.954;6.996;2023-08-30T09:57:41;16.95;;;11.23;;
39344;SDS011;25061;51.954;6.996;2023-08-30T10:00:11;16.20;;;11.40;;
39344;SDS011;25061;51.954;6.996;2023-08-30T10:02:37;18.30;;;12.55;;
39344;SDS011;25061;51.954;6.996;2023-08-30T10:05:07;16.58;;;10.60;;
39344;SDS011;25061;51.954;6.996;2023-08-30T10:07:35;17.83;;;11.63;;
39344;SDS011;25061;51.954;6.996;2023-08-30T10:10:02;15.38;;;11.00;;
39344;SDS011;25061;51.954;6.996;2023-08-30T10:12:32;13.60;;;9.73;;
39344;SDS011;25061;51.954;6.996;2023-08-30T10:14:58;13.43;;;9.70;;
39344;SDS011;25061;51.954;6.996;2023-08-30T10:17:27;14.00;;;9.60;;
39344;SDS011;25061;51.954;6.996;2023-08-30T10:19:55;17.63;;;10.02;;
39344;SDS011;25061;51.954;6.996;2023-08-30T10:22:22;14.80;;;10.73;;
39344;SDS011;25061;51.954;6.996;2023-08-30T10:24:51;11.73;;;7.82;;
39344;SDS011;25061;51.954;6.996;2023-08-30T10:27:21;11.20;;;6.70;;
39344;SDS011;25061;51.954;6.996;2023-08-30T10:29:48;9.27;;;5.72;;
39344;SDS011;25061;51.954;6.996;2023-08-30T10:32:19;11.68;;;6.75;;
39344;SDS011;25061;51.954;6.996;2023-08-30T10:34:48;11.45;;;6.82;;
39344;SDS011;25061;51.954;6.996;2023-08-30T10:37:14;10.52;;;6.30;;
39344;SDS011;25061;51.954;6.996;2023-08-30T10:39:41;10.82;;;6.85;;
39344;SDS011;25061;51.954;6.996;2023-08-30T10:42:08;10.65;;;6.53;;
39344;SDS011;25061;51.954;6.996;2023-08-30T10:44:45;11.85;;;7.25;;
39344;SDS011;25061;51.954;6.996;2023-08-30T10:47:20;11.15;;;6.78;;
39344;SDS011;25061;51.954;6.996;2023-08-30T10:49:53;10.43;;;7.13;;
39344;SDS011;25061;51.954;6.996;2023-08-30T10:52:22;11.95;;;7.35;;
39344;SDS011;25061;51.954;6.996;2023-08-30T10:54:49;13.07;;;7.57;;
39344;SDS011;25061;51.954;6.996;2023-08-30T10:57:17;12.63;;;8.13;;
39344;SDS011;25061;51.954;6.996;2023-08-30T11:02:35;13.35;;;9.55;;
39344;SDS011;25061;51.954;6.996;2023-08-30T11:05:02;14.50;;;8.88;;
39344;SDS011;25061;51.954;6.996;2023-08-30T11:07:31;13.38;;;8.98;;
39344;SDS011;25061;51.954;6.996;2023-08-30T11:09:57;14.57;;;10.15;;
39344;SDS011;25061;51.954;6.996;2023-08-30T11:12:23;14.32;;;9.75;;
39344;SDS011;25061;51.954;6.996;2023-08-30T11:14:54;14.65;;;9.73;;
39344;SDS011;25061;51.954;6.996;2023-08-30T11:17:22;14.75;;;10.43;;
39344;SDS011;25061;51.954;6.996;2023-08-30T11:19:51;13.18;;;10.20;;
39344;SDS011;25061;51.954;6.996;2023-08-30T11:22:22;15.38;;;10.52;;
39344;SDS011;25061;51.954;6.996;2023-08-30T11:24:49;14.25;;;9.85;;
39344;SDS011;25061;51.954;6.996;2023-08-30T11:27:18;14.02;;;9.30;;
39344;SDS011;25061;51.954;6.996;2023-08-30T11:29:44;14.35;;;9.52;;
39344;SDS011;25061;51.954;6.996;2023-08-30T11:32:09;14.90;;;10.10;;
39344;SDS011;25061;51.954;6.996;2023-08-30T11:34:35;15.75;;;10.15;;
39344;SDS011;25061;51.954;6.996;2023-08-30T11:37:01;14.00;;;10.68;;
39344;SDS011;25061;51.954;6.996;2023-08-30T11:39:29;13.05;;;9.40;;
39344;SDS011;25061;51.954;6.996;2023-08-30T11:41:56;13.55;;;8.52;;
39344;SDS011;25061;51.954;6.996;2023-08-30T11:44:27;13.35;;;7.68;;
39344;SDS011;25061;51.954;6.996;2023-08-30T11:46:59;11.65;;;7.20;;
39344;SDS011;25061;51.954;6.996;2023-08-30T11:49:26;12.05;;;7.78;;
39344;SDS011;25061;51.954;6.996;2023-08-30T11:51:55;13.70;;;7.97;;
39344;SDS011;25061;51.954;6.996;2023-08-30T11:54:24;13.52;;;8.30;;
39344;SDS011;25061;51.954;6.996;2023-08-30T11:56:50;12.75;;;8.55;;
39344;SDS011;25061;51.954;6.996;2023-08-30T11:59:22;13.43;;;8.85;;
39344;SDS011;25061;51.954;6.996;2023-08-30T12:01:56;13.07;;;9.00;;
39344;SDS011;25061;51.954;6.996;2023-08-30T12:04:24;14.27;;;10.13;;
39344;SDS011;25061;51.954;6.996;2023-08-30T12:06:53;15.63;;;10.27;;
39344;SDS011;25061;51.954;6.996;2023-08-30T12:09:19;15.85;;;11.20;;
39344;SDS011;25061;51.954;6.996;2023-08-30T12:11:47;18.50;;;11.93;;
39344;SDS011;25061;51.954;6.996;2023-08-30T12:14:15;15.00;;;10.93;;
39344;SDS011;25061;51.954;6.996;2023-08-30T12:16:41;15.10;;;10.85;;
39344;SDS011;25061;51.954;6.996;2023-08-30T12:19:11;14.52;;;10.25;;
39344;SDS011;25061;51.954;6.996;2023-08-30T12:21:43;16.00;;;10.32;;
39344;SDS011;25061;51.954;6.996;2023-08-30T12:24:09;15.32;;;10.80;;
39344;SDS011;25061;51.954;6.996;2023-08-30T12:26:35;15.05;;;11.43;;
39344;SDS011;25061;51.954;6.996;2023-08-30T12:29:07;30.58;;;12.35;;
39344;SDS011;25061;51.954;6.996;2023-08-30T12:31:33;15.18;;;10.95;;
39344;SDS011;25061;51.954;6.996;2023-08-30T12:33:58;17.33;;;11.95;;
39344;SDS011;25061;51.954;6.996;2023-08-30T12:36:24;13.82;;;11.35;;
39344;SDS011;25061;51.954;6.996;2023-08-30T12:38:50;13.50;;;10.35;;
39344;SDS011;25061;51.954;6.996;2023-08-30T12:41:16;12.60;;;9.85;;
39344;SDS011;25061;51.954;6.996;2023-08-30T12:43:41;14.07;;;10.40;;
39344;SDS011;25061;51.954;6.996;2023-08-30T12:46:07;13.20;;;9.35;;
39344;SDS011;25061;51.954;6.996;2023-08-30T12:48:32;14.23;;;10.00;;
39344;SDS011;25061;51.954;6.996;2023-08-30T12:50:59;14.18;;;9.35;;
39344;SDS011;25061;51.954;6.996;2023-08-30T12:53:26;13.18;;;9.60;;
39344;SDS011;25061;51.954;6.996;2023-08-30T12:55:52;12.38;;;9.23;;
39344;SDS011;25061;51.954;6.996;2023-08-30T12:58:18;12.48;;;9.40;;
39344;SDS011;25061;51.954;6.996;2023-08-30T13:00:44;14.38;;;10.18;;
39344;SDS011;25061;51.954;6.996;2023-08-30T13:03:09;13.27;;;9.38;;
39344;SDS011;25061;51.954;6.996;2023-08-30T13:05:36;12.68;;;8.88;;
39344;SDS011;25061;51.954;6.996;2023-08-30T13:08:01;12.75;;;9.48;;
39344;SDS011;25061;51.954;6.996;2023-08-30T13:10:28;14.32;;;10.07;;
39344;SDS011;25061;51.954;6.996;2023-08-30T13:12:54;12.85;;;9.98;;
39344;SDS011;25061;51.954;6.996;2023-08-30T13:15:20;13.95;;;10.20;;
39344;SDS011;25061;51.954;6.996;2023-08-30T13:17:46;14.40;;;9.65;;
39344;SDS011;25061;51.954;6.996;2023-08-30T13:20:11;13.15;;;10.00;;
39344;SDS011;25061;51.954;6.996;2023-08-30T13:22:37;13.07;;;9.82;;
39344;SDS011;25061;51.954;6.996;2023-08-30T13:25:03;13.38;;;10.40;;
39344;SDS011;25061;51.954;6.996;2023-08-30T13:27:30;11.93;;;9.77;;
39344;SDS011;25061;51.954;6.996;2023-08-30T13:29:55;13.02;;;10.05;;
39344;SDS011;25061;51.954;6.996;2023-08-30T13:32:21;12.18;;;9.63;;
39344;SDS011;25061;51.954;6.996;2023-08-30T13:34:47;13.55;;;10.10;;
39344;SDS011;25061;51.954;6.996;2023-08-30T13:37:12;12.48;;;9.55;;
39344;SDS011;25061;51.954;6.996;2023-08-30T13:39:41;13.82;;;9.50;;
39344;SDS011;25061;51.954;6.996;2023-08-30T13:42:07;11.80;;;8.88;;
39344;SDS011;25061;51.954;6.996;2023-08-30T13:44:34;13.43;;;10.40;;
39344;SDS011;25061;51.954;6.996;2023-08-30T13:47:05;12.55;;;9.75;;
39344;SDS011;25061;51.954;6.996;2023-08-30T13:49:31;12.85;;;9.13;;
39344;SDS011;25061;51.954;6.996;2023-08-30T13:51:57;11.45;;;8.25;;
39344;SDS011;25061;51.954;6.996;2023-08-30T13:54:25;12.25;;;9.18;;
39344;SDS011;25061;51.954;6.996;2023-08-30T13:56:51;11.63;;;8.55;;
39344;SDS011;25061;51.954;6.996;2023-08-30T13:59:17;12.80;;;9.98;;
39344;SDS011;25061;51.954;6.996;2023-08-30T14:01:42;13.05;;;10.10;;
39344;SDS011;25061;51.954;6.996;2023-08-30T14:04:08;13.48;;;9.27;;
39344;SDS011;25061;51.954;6.996;2023-08-30T14:06:34;14.27;;;9.18;;
39344;SDS011;25061;51.954;6.996;2023-08-30T14:09:00;13.80;;;9.63;;
39344;SDS011;25061;51.954;6.996;2023-08-30T14:11:26;13.60;;;10.18;;
39344;SDS011;25061;51.954;6.996;2023-08-30T14:13:51;15.07;;;10.90;;
39344;SDS011;25061;51.954;6.996;2023-08-30T14:16:17;12.63;;;8.88;;
39344;SDS011;25061;51.954;6.996;2023-08-30T14:18:43;11.90;;;9.48;;
39344;SDS011;25061;51.954;6.996;2023-08-30T14:21:09;13.00;;;9.68;;
39344;SDS011;25061;51.954;6.996;2023-08-30T14:23:34;12.45;;;9.75;;
39344;SDS011;25061;51.954;6.996;2023-08-30T14:26:02;12.23;;;8.85;;
39344;SDS011;25061;51.954;6.996;2023-08-30T14:28:33;12.45;;;8.45;;
39344;SDS011;25061;51.954;6.996;2023-08-30T14:30:59;12.07;;;8.73;;
39344;SDS011;25061;51.954;6.996;2023-08-30T14:33:26;12.63;;;8.35;;
39344;SDS011;25061;51.954;6.996;2023-08-30T14:35:52;12.55;;;9.20;;
39344;SDS011;25061;51.954;6.996;2023-08-30T14:38:17;11.75;;;8.07;;
39344;SDS011;25061;51.954;6.996;2023-08-30T14:40:43;10.75;;;7.22;;
39344;SDS011;25061;51.954;6.996;2023-08-30T14:43:09;13.25;;;6.68;;
39344;SDS011;25061;51.954;6.996;2023-08-30T14:45:34;10.50;;;6.72;;
39344;SDS011;25061;51.954;6.996;2023-08-30T14:48:00;12.10;;;7.57;;
39344;SDS011;25061;51.954;6.996;2023-08-30T14:50:26;10.85;;;7.32;;
39344;SDS011;25061;51.954;6.996;2023-08-30T14:52:52;11.30;;;7.40;;
39344;SDS011;25061;51.954;6.996;2023-08-30T14:55:20;10.27;;;6.90;;
39344;SDS011;25061;51.954;6.996;2023-08-30T14:57:46;12.20;;;8.13;;
39344;SDS011;25061;51.954;6.996;2023-08-30T15:00:11;11.88;;;7.40;;
39344;SDS011;25061;51.954;6.996;2023-08-30T15:02:37;11.00;;;7.60;;
39344;SDS011;25061;51.954;6.996;2023-08-30T15:05:03;10.35;;;7.15;;
39344;SDS011;25061;51.954;6.996;2023-08-30T15:07:28;12.73;;;6.93;;
39344;SDS011;25061;51.954;6.996;2023-08-30T15:09:55;12.10;;;6.85;;
39344;SDS011;25061;51.954;6.996;2023-08-30T15:12:21;12.45;;;7.38;;
39344;SDS011;25061;51.954;6.996;2023-08-30T15:14:47;11.23;;;7.13;;
39344;SDS011;25061;51.954;6.996;2023-08-30T15:17:13;10.05;;;6.93;;
39344;SDS011;25061;51.954;6.996;2023-08-30T15:19:40;10.85;;;7.22;;
39344;SDS011;25061;51.954;6.996;2023-08-30T15:22:05;10.30;;;7.38;;
39344;SDS011;25061;51.954;6.996;2023-08-30T15:24:31;9.65;;;6.50;;
39344;SDS011;25061;51.954;6.996;2023-08-30T15:26:57;11.98;;;6.55;;
39344;SDS011;25061;51.954;6.996;2023-08-30T15:29:22;10.88;;;6.90;;
39344;SDS011;25061;51.954;6.996;2023-08-30T15:31:48;10.93;;;6.82;;
39344;SDS011;25061;51.954;6.996;2023-08-30T15:34:19;10.98;;;6.82;;
39344;SDS011;25061;51.954;6.996;2023-08-30T15:36:45;10.10;;;6.65;;
39344;SDS011;25061;51.954;6.996;2023-08-30T15:39:14;11.50;;;6.97;;
39344;SDS011;25061;51.954;6.996;2023-08-30T15:41:43;11.50;;;7.13;;
39344;SDS011;25061;51.954;6.996;2023-08-30T15:44:10;10.63;;;7.13;;
39344;SDS011;25061;51.954;6.996;2023-08-30T15:46:36;15.25;;;7.35;;
39344;SDS011;25061;51.954;6.996;2023-08-30T15:49:02;12.68;;;7.47;;
39344;SDS011;25061;51.954;6.996;2023-08-30T15:51:27;10.77;;;7.35;;
39344;SDS011;25061;51.954;6.996;2023-08-30T15:53:53;12.55;;;7.15;;
39344;SDS011;25061;51.954;6.996;2023-08-30T15:56:19;11.40;;;7.25;;
39344;SDS011;25061;51.954;6.996;2023-08-30T15:58:46;12.88;;;7.43;;
39344;SDS011;25061;51.954;6.996;2023-08-30T16:01:12;12.45;;;7.57;;
39344;SDS011;25061;51.954;6.996;2023-08-30T16:03:39;11.90;;;7.80;;
39344;SDS011;25061;51.954;6.996;2023-08-30T16:06:05;15.85;;;8.15;;
39344;SDS011;25061;51.954;6.996;2023-08-30T16:08:31;12.32;;;8.05;;
39344;SDS011;25061;51.954;6.996;2023-08-30T16:10:56;13.27;;;8.00;;
39344;SDS011;25061;51.954;6.996;2023-08-30T16:13:22;12.77;;;8.57;;
39344;SDS011;25061;51.954;6.996;2023-08-30T16:15:48;13.57;;;8.65;;
39344;SDS011;25061;51.954;6.996;2023-08-30T16:18:13;12.60;;;8.10;;
39344;SDS011;25061;51.954;6.996;2023-08-30T16:20:40;14.80;;;8.40;;
39344;SDS011;25061;51.954;6.996;2023-08-30T16:23:06;11.98;;;7.53;;
39344;SDS011;25061;51.954;6.996;2023-08-30T16:25:32;11.55;;;7.53;;
39344;SDS011;25061;51.954;6.996;2023-08-30T16:27:57;13.15;;;7.65;;
39344;SDS011;25061;51.954;6.996;2023-08-30T16:30:23;11.70;;;7.75;;
39344;SDS011;25061;51.954;6.996;2023-08-30T16:32:50;13.25;;;7.65;;
39344;SDS011;25061;51.954;6.996;2023-08-30T16:35:16;13.75;;;8.18;;
39344;SDS011;25061;51.954;6.996;2023-08-30T16:37:41;13.00;;;7.75;;
39344;SDS011;25061;51.954;6.996;2023-08-30T16:40:07;13.63;;;8.70;;
39344;SDS011;25061;51.954;6.996;2023-08-30T16:42:33;12.80;;;7.95;;
39344;SDS011;25061;51.954;6.996;2023-08-30T16:44:59;13.18;;;8.20;;
39344;SDS011;25061;51.954;6.996;2023-08-30T16:47:24;11.82;;;7.80;;
39344;SDS011;25061;51.954;6.996;2023-08-30T16:49:50;12.40;;;7.45;;
39344;SDS011;25061;51.954;6.996;2023-08-30T16:52:16;12.23;;;5.93;;
39344;SDS011;25061;51.954;6.996;2023-08-30T16:54:42;10.52;;;3.35;;
39344;SDS011;25061;51.954;6.996;2023-08-30T16:57:10;14.20;;;3.15;;
39344;SDS011;25061;51.954;6.996;2023-08-30T16:59:37;11.20;;;2.40;;
39344;SDS011;25061;51.954;6.996;2023-08-30T17:02:03;12.02;;;2.65;;
39344;SDS011;25061;51.954;6.996;2023-08-30T17:04:30;10.27;;;2.70;;
39344;SDS011;25061;51.954;6.996;2023-08-30T17:06:56;16.77;;;3.33;;
39344;SDS011;25061;51.954;6.996;2023-08-30T17:09:33;9.95;;;2.35;;
39344;SDS011;25061;51.954;6.996;2023-08-30T17:12:02;13.07;;;2.72;;
39344;SDS011;25061;51.954;6.996;2023-08-30T17:14:29;10.07;;;2.50;;
39344;SDS011;25061;51.954;6.996;2023-08-30T17:16:56;11.35;;;2.00;;
39344;SDS011;25061;51.954;6.996;2023-08-30T17:19:23;9.60;;;2.40;;
39344;SDS011;25061;51.954;6.996;2023-08-30T17:21:50;9.70;;;2.25;;
39344;SDS011;25061;51.954;6.996;2023-08-30T17:24:15;11.20;;;2.20;;
39344;SDS011;25061;51.954;6.996;2023-08-30T17:26:42;9.52;;;2.10;;
39344;SDS011;25061;51.954;6.996;2023-08-30T17:29:08;7.05;;;1.98;;
39344;SDS011;25061;51.954;6.996;2023-08-30T17:31:36;9.50;;;2.00;;
39344;SDS011;25061;51.954;6.996;2023-08-30T17:34:02;8.38;;;1.98;;
39344;SDS011;25061;51.954;6.996;2023-08-30T17:36:27;9.45;;;2.15;;
39344;SDS011;25061;51.954;6.996;2023-08-30T17:38:53;9.85;;;2.58;;
39344;SDS011;25061;51.954;6.996;2023-08-30T17:41:19;9.93;;;2.22;;
39344;SDS011;25061;51.954;6.996;2023-08-30T17:43:44;9.07;;;2.38;;
39344;SDS011;25061;51.954;6.996;2023-08-30T17:46:10;8.73;;;2.13;;
39344;SDS011;25061;51.954;6.996;2023-08-30T17:48:36;7.78;;;1.60;;
39344;SDS011;25061;51.954;6.996;2023-08-30T17:51:04;7.55;;;1.90;;
39344;SDS011;25061;51.954;6.996;2023-08-30T17:53:29;7.75;;;1.80;;
39344;SDS011;25061;51.954;6.996;2023-08-30T17:55:55;6.18;;;1.65;;
39344;SDS011;25061;51.954;6.996;2023-08-30T17:58:25;8.50;;;1.70;;
39344;SDS011;25061;51.954;6.996;2023-08-30T18:00:55;8.10;;;1.70;;
39344;SDS011;25061;51.954;6.996;2023-08-30T18:03:24;8.02;;;1.90;;
39344;SDS011;25061;51.954;6.996;2023-08-30T18:06:00;9.95;;;1.80;;
39344;SDS011;25061;51.954;6.996;2023-08-30T18:08:28;8.35;;;1.63;;
39344;SDS011;25061;51.954;6.996;2023-08-30T18:10:54;7.97;;;2.05;;
39344;SDS011;25061;51.954;6.996;2023-08-30T18:13:20;9.15;;;1.95;;
39344;SDS011;25061;51.954;6.996;2023-08-30T18:15:46;7.22;;;2.03;;
39344;SDS011;25061;51.954;6.996;2023-08-30T18:18:12;9.65;;;1.48;;
39344;SDS011;25061;51.954;6.996;2023-08-30T18:20:38;7.50;;;1.80;;
39344;SDS011;25061;51.954;6.996;2023-08-30T18:23:03;5.47;;;1.90;;
39344;SDS011;25061;51.954;6.996;2023-08-30T18:25:29;8.35;;;2.00;;
39344;SDS011;25061;51.954;6.996;2023-08-30T18:27:54;6.07;;;1.52;;
39344;SDS011;25061;51.954;6.996;2023-08-30T18:30:20;6.53;;;1.80;;
39344;SDS011;25061;51.954;6.996;2023-08-30T18:32:46;10.88;;;1.80;;
39344;SDS011;25061;51.954;6.996;2023-08-30T18:35:12;5.88;;;1.60;;
39344;SDS011;25061;51.954;6.996;2023-08-30T18:37:38;5.78;;;1.48;;
39344;SDS011;25061;51.954;6.996;2023-08-30T18:40:04;8.05;;;1.70;;
39344;SDS011;25061;51.954;6.996;2023-08-30T18:42:31;8.60;;;2.20;;
39344;SDS011;25061;51.954;6.996;2023-08-30T18:44:57;7.28;;;1.48;;
39344;SDS011;25061;51.954;6.996;2023-08-30T18:47:22;5.95;;;1.60;;
39344;SDS011;25061;51.954;6.996;2023-08-30T18:49:50;7.03;;;1.83;;
39344;SDS011;25061;51.954;6.996;2023-08-30T18:52:15;8.55;;;1.90;;
39344;SDS011;25061;51.954;6.996;2023-08-30T18:54:41;6.50;;;1.85;;
39344;SDS011;25061;51.954;6.996;2023-08-30T18:57:12;9.65;;;1.88;;
39344;SDS011;25061;51.954;6.996;2023-08-30T18:59:39;10.95;;;2.30;;
39344;SDS011;25061;51.954;6.996;2023-08-30T19:02:08;6.47;;;1.80;;